Bay City, WI

7:24 PM CST on February 27, 2017 (GMT -0600)
Red Wing Municipal

Weather History for KRGK - September, 2013

Change the Weather History Date:

Saturday, September 14, 2013

  Actual Average Record
Temperature  
Mean Temperature 62 °F -  
Max Temperature 78 °F 72 °F 84 °F (2015)
Min Temperature 46 °F 50 °F 28 °F (1996)
Degree Days  
Heating Degree Days 3    
Growing Degree Days 12 (Base 50)    
Moisture  
Dew Point 46 °F    
Average Humidity 61    
Maximum Humidity 94    
Minimum Humidity 30    
Precipitation  
Precipitation 0.46 in - - ()
Sea Level Pressure  
Sea Level Pressure 30.01 in    
Wind  
Wind Speed 4 mph (South)    
Max Wind Speed 13 mph    
Max Gust Speed 18 mph    
Visibility 10 miles    
Events Rain    
Averages and records for this station are not official NWS values.
T = Trace of Precipitation, MM = Missing Value Source: NWS Daily Summary

Daily Weather History Graph

Daily Weather History Graph

Search for Another Location

Airport or City:

Trip Planner

Search our weather history database for the weather conditions in past years. The results will help you decide how hot, cold, wet, or windy it might be!

Date:

Astronomy

Sep. 14, 2013 Rise Set
Actual Time 6:47 AM CDT 7:21 PM CDT
Civil Twilight 6:18 AM CDT 7:51 PM CDT
Nautical Twilight 5:43 AM CDT 8:25 PM CDT
Astronomical Twilight 5:07 AM CDT 9:01 PM CDT
Moon 4:12 PM CDT (9/14) 1:10 AM CDT (9/14)
Length of Visible Light 13h 32m
Length of Day
12h 34m
Waxing Gibbous, 72% of the Moon is Illuminated
Sep 14
Waxing Gibbous
Sep 19
Full
Sep 26
Last Quarter
Oct 4
New
Oct 11
First Quarter

Hourly Weather History & Observations

Time (CDT) Temp. Windchill Dew Point Humidity Pressure Visibility Wind Dir Wind Speed Gust Speed Precip Events Conditions
12:15 AM 46.4 °F - 42.8 °F 87% 30.10 in 10.0 mi Calm Calm - N/A   Clear
12:35 AM 46.4 °F 45.2 °F 44.6 °F 93% 30.10 in 10.0 mi NE 3.5 mph - N/A   Clear
12:55 AM 46.4 °F - 42.8 °F 87% 30.11 in 10.0 mi Calm Calm - N/A   Clear
1:15 AM 46.4 °F - 42.8 °F 87% 30.10 in 10.0 mi Calm Calm - N/A   Clear
1:35 AM 46.4 °F - 42.8 °F 87% 30.09 in 10.0 mi Calm Calm - N/A   Clear
1:55 AM 46.4 °F - 42.8 °F 87% 30.10 in 10.0 mi Calm Calm - N/A   Clear
2:15 AM 46.4 °F - 42.8 °F 87% 30.10 in 10.0 mi Calm Calm - N/A   Clear
2:35 AM 48.2 °F - 44.6 °F 87% 30.09 in 10.0 mi Calm Calm - N/A   Clear
2:55 AM 55.4 °F - 42.8 °F 63% 30.09 in 10.0 mi South 5.8 mph - N/A   Clear
3:15 AM 53.6 °F - 42.8 °F 67% 30.10 in 10.0 mi South 3.5 mph - N/A   Clear
3:35 AM 53.6 °F - 42.8 °F 67% 30.09 in 10.0 mi South 3.5 mph - N/A   Clear
3:55 AM 53.6 °F - 42.8 °F 67% 30.09 in 10.0 mi South 3.5 mph - N/A   Clear
4:15 AM 53.6 °F - 42.8 °F 67% 30.09 in 10.0 mi South 5.8 mph - N/A   Clear
4:35 AM 50.0 °F - 42.8 °F 76% 30.09 in 10.0 mi Calm Calm - N/A   Clear
4:55 AM 51.8 °F - 42.8 °F 71% 30.08 in 10.0 mi SSW 4.6 mph - N/A   Clear
5:15 AM 53.6 °F - 42.8 °F 67% 30.08 in 10.0 mi South 3.5 mph - N/A   Clear
5:35 AM 53.6 °F - 42.8 °F 67% 30.09 in 10.0 mi South 5.8 mph - N/A   Clear
5:55 AM 53.6 °F - 42.8 °F 67% 30.08 in 10.0 mi South 3.5 mph - N/A   Clear
6:15 AM 53.6 °F - 42.8 °F 67% 30.09 in 10.0 mi SSE 3.5 mph - N/A   Clear
6:35 AM 51.8 °F - 41.0 °F 67% 30.09 in 10.0 mi South 3.5 mph - N/A   Clear
6:55 AM 51.8 °F - 41.0 °F 67% 30.09 in 10.0 mi Calm Calm - N/A   Clear
7:15 AM 53.6 °F - 41.0 °F 62% 30.09 in 10.0 mi South 4.6 mph - N/A   Clear
7:35 AM 53.6 °F - 41.0 °F 62% 30.09 in 10.0 mi South 3.5 mph - N/A   Clear
7:55 AM 55.4 °F - 41.0 °F 58% 30.09 in 10.0 mi South 4.6 mph - N/A   Clear
8:15 AM 57.2 °F - 42.8 °F 59% 30.09 in 10.0 mi Calm Calm - N/A   Clear
8:35 AM 57.2 °F - 42.8 °F 59% 30.08 in 10.0 mi South 6.9 mph - N/A   Clear
8:55 AM 59.0 °F - 42.8 °F 55% 30.08 in 10.0 mi South 5.8 mph - N/A   Clear
9:15 AM 60.8 °F - 42.8 °F 52% 30.07 in 10.0 mi South 6.9 mph - N/A   Clear
9:35 AM 62.6 °F - 42.8 °F 48% 30.07 in 10.0 mi SSE 3.5 mph - N/A   Clear
9:55 AM 64.4 °F - 42.8 °F 45% 30.06 in 10.0 mi South 5.8 mph - N/A   Clear
10:15 AM 66.2 °F - 42.8 °F 43% 30.06 in 10.0 mi SW 3.5 mph - N/A   Clear
10:35 AM 66.2 °F - 42.8 °F 43% 30.05 in 10.0 mi SW 3.5 mph - N/A   Clear
10:55 AM 68.0 °F - 42.8 °F 40% 30.04 in 10.0 mi South 4.6 mph - N/A   Clear
11:15 AM 71.6 °F - 42.8 °F 35% 30.03 in 10.0 mi WSW 8.1 mph - N/A   Clear
11:35 AM 73.4 °F - 42.8 °F 33% 30.03 in 10.0 mi WSW 9.2 mph - N/A   Clear
11:55 AM 73.4 °F - 42.8 °F 33% 30.02 in 10.0 mi SW 9.2 mph 18.4 mph N/A   Clear
12:15 PM 73.4 °F - 42.8 °F 33% 30.02 in 10.0 mi SW 10.4 mph - N/A   Clear
12:35 PM 73.4 °F - 42.8 °F 33% 30.01 in 10.0 mi SW 10.4 mph - N/A   Clear
12:55 PM 73.4 °F - 42.8 °F 33% 30.00 in 10.0 mi WSW 10.4 mph 17.3 mph N/A   Clear
1:15 PM 73.4 °F - 44.6 °F 36% 29.99 in 10.0 mi SW 8.1 mph 16.1 mph N/A   Clear
1:35 PM 78.8 °F - 44.6 °F 30% 29.98 in 10.0 mi SW 10.4 mph - N/A   Clear
1:55 PM 75.2 °F - 44.6 °F 34% 29.97 in 10.0 mi SW 11.5 mph - N/A   Clear
2:15 PM 75.2 °F - 44.6 °F 34% 29.96 in 10.0 mi SW 9.2 mph - N/A   Clear
2:35 PM 73.4 °F - 44.6 °F 36% 29.97 in 10.0 mi SW 8.1 mph - N/A   Clear
2:55 PM 73.4 °F - 44.6 °F 36% 29.95 in 10.0 mi SSW 8.1 mph - N/A   Clear
3:15 PM 75.2 °F - 42.8 °F 31% 29.95 in 10.0 mi SSW 10.4 mph - N/A   Clear
3:35 PM 75.2 °F - 42.8 °F 31% 29.94 in 10.0 mi SSW 9.2 mph 18.4 mph N/A   Clear
3:55 PM 75.2 °F - 44.6 °F 34% 29.93 in 10.0 mi South 9.2 mph - N/A   Clear
4:14 PM 75.2 °F - 42.8 °F 31% 29.93 in 10.0 mi SSW 10.4 mph 17.3 mph N/A   Clear
4:35 PM 73.4 °F - 42.8 °F 33% 29.94 in 10.0 mi SW 8.1 mph - N/A   Clear
4:54 PM 73.4 °F - 42.8 °F 33% 29.94 in 10.0 mi SSW 6.9 mph - N/A   Clear
5:15 PM 73.4 °F - 42.8 °F 33% 29.94 in 10.0 mi SW 5.8 mph - N/A   Scattered Clouds
5:35 PM 71.6 °F - 44.6 °F 38% 29.93 in 10.0 mi South 5.8 mph - N/A   Scattered Clouds
5:55 PM 71.6 °F - 44.6 °F 38% 29.93 in 10.0 mi South 4.6 mph - N/A   Scattered Clouds
6:15 PM 71.6 °F - 44.6 °F 38% 29.92 in 10.0 mi SSE 5.8 mph - N/A   Scattered Clouds
6:35 PM 69.8 °F - 46.4 °F 43% 29.92 in 10.0 mi SSW 10.4 mph - N/A Rain Light Rain
6:55 PM 66.2 °F - 51.8 °F 60% 29.92 in 7.0 mi Calm Calm - N/A Rain Rain
7:15 PM 62.6 °F - 53.6 °F 72% 29.91 in 10.0 mi South 5.8 mph - 0.02 in Rain Light Rain
7:35 PM 60.8 °F - 53.6 °F 77% 29.92 in 7.0 mi SSW 6.9 mph - 0.06 in Rain Rain
7:55 PM 59.0 °F - 55.4 °F 88% 29.90 in 10.0 mi NE 4.6 mph - 0.10 in Rain Light Rain
8:15 PM 59.0 °F - 55.4 °F 88% 29.92 in 10.0 mi NNE 6.9 mph - N/A   Overcast
8:35 PM 57.2 °F - 55.4 °F 94% 29.94 in 10.0 mi NNE 6.9 mph - N/A Rain Light Rain
8:55 PM 57.2 °F - 53.6 °F 88% 29.95 in 10.0 mi NE 6.9 mph - 0.02 in Rain Light Rain
9:15 PM 57.2 °F - 55.4 °F 94% 29.96 in 10.0 mi NE 3.5 mph - N/A Rain Light Rain
9:35 PM 57.2 °F - 55.4 °F 94% 29.97 in 5.0 mi Calm Calm - 0.07 in Rain Rain
9:55 PM 57.2 °F - 55.4 °F 94% 29.97 in 7.0 mi East 3.5 mph - 0.16 in Rain Heavy Rain
10:15 PM 57.2 °F - 55.4 °F 94% 29.96 in 7.0 mi ESE 4.6 mph - 0.11 in Rain Heavy Rain
10:35 PM 57.2 °F - 55.4 °F 94% 29.95 in 10.0 mi East 5.8 mph - 0.17 in Rain Rain
10:55 PM 57.2 °F - 55.4 °F 94% 29.95 in 10.0 mi East 6.9 mph - 0.18 in Rain Rain
11:15 PM 57.2 °F - 55.4 °F 94% 29.95 in 10.0 mi ESE 6.9 mph - N/A   Overcast
11:35 PM 57.2 °F - 55.4 °F 94% 29.95 in 10.0 mi SE 9.2 mph 16.1 mph N/A   Overcast
11:55 PM 57.2 °F - 55.4 °F 94% 29.94 in 7.0 mi SE 12.7 mph - N/A Rain Rain